sensor_id;sensor_type;location;lat;lon;timestamp;temperature;humidity
20242;DHT22;10279;46.388;8.116;2023-12-07T00:02:08;0.90;99.90
20242;DHT22;10279;46.388;8.116;2023-12-07T00:04:35;0.90;99.90
20242;DHT22;10279;46.388;8.116;2023-12-07T00:07:02;0.90;99.90
20242;DHT22;10279;46.388;8.116;2023-12-07T00:09:30;0.90;99.90
20242;DHT22;10279;46.388;8.116;2023-12-07T00:11:57;0.80;99.90
20242;DHT22;10279;46.388;8.116;2023-12-07T00:14:24;0.80;99.90
20242;DHT22;10279;46.388;8.116;2023-12-07T00:16:51;0.90;99.90
20242;DHT22;10279;46.388;8.116;2023-12-07T00:19:18;0.90;99.90
20242;DHT22;10279;46.388;8.116;2023-12-07T00:21:45;1.00;99.90
20242;DHT22;10279;46.388;8.116;2023-12-07T00:24:12;0.90;99.90
20242;DHT22;10279;46.388;8.116;2023-12-07T00:26:39;0.90;99.90
20242;DHT22;10279;46.388;8.116;2023-12-07T00:29:07;0.90;99.90
20242;DHT22;10279;46.388;8.116;2023-12-07T00:31:34;0.80;99.90
20242;DHT22;10279;46.388;8.116;2023-12-07T00:34:01;0.80;99.90
20242;DHT22;10279;46.388;8.116;2023-12-07T00:36:28;0.80;99.90
20242;DHT22;10279;46.388;8.116;2023-12-07T00:38:55;0.70;99.90
20242;DHT22;10279;46.388;8.116;2023-12-07T00:41:22;0.50;99.90
20242;DHT22;10279;46.388;8.116;2023-12-07T00:43:49;0.40;99.90
20242;DHT22;10279;46.388;8.116;2023-12-07T00:46:17;0.40;99.90
20242;DHT22;10279;46.388;8.116;2023-12-07T00:48:44;0.30;99.90
20242;DHT22;10279;46.388;8.116;2023-12-07T00:51:11;0.30;99.90
20242;DHT22;10279;46.388;8.116;2023-12-07T00:53:38;0.40;99.90
20242;DHT22;10279;46.388;8.116;2023-12-07T00:56:06;0.40;99.90
20242;DHT22;10279;46.388;8.116;2023-12-07T00:58:34;0.50;99.90
20242;DHT22;10279;46.388;8.116;2023-12-07T01:01:01;0.50;99.90
20242;DHT22;10279;46.388;8.116;2023-12-07T01:03:28;0.50;99.90
20242;DHT22;10279;46.388;8.116;2023-12-07T01:05:57;0.50;99.90
20242;DHT22;10279;46.388;8.116;2023-12-07T01:08:24;0.50;99.90
20242;DHT22;10279;46.388;8.116;2023-12-07T01:10:51;0.40;99.90
20242;DHT22;10279;46.388;8.116;2023-12-07T01:13:18;0.50;99.90
20242;DHT22;10279;46.388;8.116;2023-12-07T01:15:45;0.50;99.90
20242;DHT22;10279;46.388;8.116;2023-12-07T01:18:12;0.50;99.90
20242;DHT22;10279;46.388;8.116;2023-12-07T01:20:39;0.40;99.90
20242;DHT22;10279;46.388;8.116;2023-12-07T01:23:07;0.50;99.90
20242;DHT22;10279;46.388;8.116;2023-12-07T01:25:37;0.50;99.90
20242;DHT22;10279;46.388;8.116;2023-12-07T01:28:04;0.40;99.90
20242;DHT22;10279;46.388;8.116;2023-12-07T01:30:32;0.40;99.90
20242;DHT22;10279;46.388;8.116;2023-12-07T01:32:59;0.30;99.90
20242;DHT22;10279;46.388;8.116;2023-12-07T01:35:26;0.30;99.90
20242;DHT22;10279;46.388;8.116;2023-12-07T01:37:53;0.20;99.90
20242;DHT22;10279;46.388;8.116;2023-12-07T01:40:20;0.20;99.90
20242;DHT22;10279;46.388;8.116;2023-12-07T01:42:51;0.20;99.90
20242;DHT22;10279;46.388;8.116;2023-12-07T01:45:19;0.20;99.90
20242;DHT22;10279;46.388;8.116;2023-12-07T01:47:48;0.20;99.90
20242;DHT22;10279;46.388;8.116;2023-12-07T01:50:17;0.20;99.90
20242;DHT22;10279;46.388;8.116;2023-12-07T01:52:54;0.20;99.90
20242;DHT22;10279;46.388;8.116;2023-12-07T01:55:24;0.20;99.90
20242;DHT22;10279;46.388;8.116;2023-12-07T01:57:52;0.30;99.90
20242;DHT22;10279;46.388;8.116;2023-12-07T02:00:19;0.20;99.90
20242;DHT22;10279;46.388;8.116;2023-12-07T02:02:47;0.20;99.90
20242;DHT22;10279;46.388;8.116;2023-12-07T02:05:15;0.20;99.90
20242;DHT22;10279;46.388;8.116;2023-12-07T02:07:42;0.20;99.90
20242;DHT22;10279;46.388;8.116;2023-12-07T02:10:12;0.10;99.90
20242;DHT22;10279;46.388;8.116;2023-12-07T02:12:40;0.10;99.90
20242;DHT22;10279;46.388;8.116;2023-12-07T02:15:08;0.00;99.90
20242;DHT22;10279;46.388;8.116;2023-12-07T02:17:44;0.00;99.90
20242;DHT22;10279;46.388;8.116;2023-12-07T02:20:39;-0.10;99.90
20242;DHT22;10279;46.388;8.116;2023-12-07T02:23:10;-0.10;99.90
20242;DHT22;10279;46.388;8.116;2023-12-07T02:28:46;-0.20;99.90
20242;DHT22;10279;46.388;8.116;2023-12-07T02:31:13;-0.30;99.90
20242;DHT22;10279;46.388;8.116;2023-12-07T02:33:41;-0.30;99.90
20242;DHT22;10279;46.388;8.116;2023-12-07T02:36:08;-0.30;99.90
20242;DHT22;10279;46.388;8.116;2023-12-07T02:38:37;-0.20;99.90
20242;DHT22;10279;46.388;8.116;2023-12-07T02:41:05;-0.20;99.90
20242;DHT22;10279;46.388;8.116;2023-12-07T02:43:33;-0.20;99.90
20242;DHT22;10279;46.388;8.116;2023-12-07T02:46:01;-0.30;99.90
20242;DHT22;10279;46.388;8.116;2023-12-07T02:48:29;-0.40;99.90
20242;DHT22;10279;46.388;8.116;2023-12-07T02:50:56;-0.50;99.90
20242;DHT22;10279;46.388;8.116;2023-12-07T02:53:23;-0.50;99.90
20242;DHT22;10279;46.388;8.116;2023-12-07T02:55:50;-0.50;99.90
20242;DHT22;10279;46.388;8.116;2023-12-07T02:58:17;-0.50;99.90
20242;DHT22;10279;46.388;8.116;2023-12-07T03:00:44;-0.40;99.90
20242;DHT22;10279;46.388;8.116;2023-12-07T03:03:11;-0.40;99.90
20242;DHT22;10279;46.388;8.116;2023-12-07T03:05:38;-0.40;99.90
20242;DHT22;10279;46.388;8.116;2023-12-07T03:08:06;-0.40;99.90
20242;DHT22;10279;46.388;8.116;2023-12-07T03:10:33;-0.40;99.90
20242;DHT22;10279;46.388;8.116;2023-12-07T03:13:00;-0.40;99.90
20242;DHT22;10279;46.388;8.116;2023-12-07T03:15:27;-0.50;99.90
20242;DHT22;10279;46.388;8.116;2023-12-07T03:17:54;-0.50;99.90
20242;DHT22;10279;46.388;8.116;2023-12-07T03:20:21;-0.50;99.90
20242;DHT22;10279;46.388;8.116;2023-12-07T03:22:49;-0.60;99.90
20242;DHT22;10279;46.388;8.116;2023-12-07T03:25:16;-0.60;99.90
20242;DHT22;10279;46.388;8.116;2023-12-07T03:27:45;-0.50;99.90
20242;DHT22;10279;46.388;8.116;2023-12-07T03:30:12;-0.50;99.90
20242;DHT22;10279;46.388;8.116;2023-12-07T03:32:39;-0.50;99.90
20242;DHT22;10279;46.388;8.116;2023-12-07T03:35:07;-0.50;99.90
20242;DHT22;10279;46.388;8.116;2023-12-07T03:37:34;-0.50;99.90
20242;DHT22;10279;46.388;8.116;2023-12-07T03:40:01;-0.50;99.90
20242;DHT22;10279;46.388;8.116;2023-12-07T03:42:28;-0.50;99.90
20242;DHT22;10279;46.388;8.116;2023-12-07T03:45:15;-0.60;99.90
20242;DHT22;10279;46.388;8.116;2023-12-07T03:47:42;-0.70;99.90
20242;DHT22;10279;46.388;8.116;2023-12-07T03:50:09;-0.70;99.90
20242;DHT22;10279;46.388;8.116;2023-12-07T03:52:37;-0.70;99.90
20242;DHT22;10279;46.388;8.116;2023-12-07T03:55:04;-0.80;99.90
20242;DHT22;10279;46.388;8.116;2023-12-07T03:57:32;-0.70;99.90
20242;DHT22;10279;46.388;8.116;2023-12-07T03:59:59;-0.60;99.90
20242;DHT22;10279;46.388;8.116;2023-12-07T04:02:27;-0.70;99.90
20242;DHT22;10279;46.388;8.116;2023-12-07T04:04:54;-0.70;99.90
20242;DHT22;10279;46.388;8.116;2023-12-07T04:07:21;-0.80;99.90
20242;DHT22;10279;46.388;8.116;2023-12-07T04:09:49;-0.80;99.90
20242;DHT22;10279;46.388;8.116;2023-12-07T04:12:16;-0.80;99.90
20242;DHT22;10279;46.388;8.116;2023-12-07T04:14:44;-0.80;99.90
20242;DHT22;10279;46.388;8.116;2023-12-07T04:17:11;-0.80;99.90
20242;DHT22;10279;46.388;8.116;2023-12-07T04:19:38;-0.90;99.90
20242;DHT22;10279;46.388;8.116;2023-12-07T04:22:05;-0.90;99.90
20242;DHT22;10279;46.388;8.116;2023-12-07T04:24:32;-1.00;99.90
20242;DHT22;10279;46.388;8.116;2023-12-07T04:26:59;-1.00;99.90
20242;DHT22;10279;46.388;8.116;2023-12-07T04:29:26;-1.00;99.90
20242;DHT22;10279;46.388;8.116;2023-12-07T04:31:54;-1.00;99.90
20242;DHT22;10279;46.388;8.116;2023-12-07T04:34:21;-0.90;99.90
20242;DHT22;10279;46.388;8.116;2023-12-07T04:36:49;-0.80;99.90
20242;DHT22;10279;46.388;8.116;2023-12-07T04:39:16;-0.80;99.90
20242;DHT22;10279;46.388;8.116;2023-12-07T04:41:43;-0.80;99.90
20242;DHT22;10279;46.388;8.116;2023-12-07T04:44:10;-0.90;99.90
20242;DHT22;10279;46.388;8.116;2023-12-07T04:46:37;-1.00;99.90
20242;DHT22;10279;46.388;8.116;2023-12-07T04:49:04;-1.10;99.90
20242;DHT22;10279;46.388;8.116;2023-12-07T04:51:32;-1.10;99.90
20242;DHT22;10279;46.388;8.116;2023-12-07T04:53:59;-1.20;99.90
20242;DHT22;10279;46.388;8.116;2023-12-07T04:56:43;-1.20;99.90
20242;DHT22;10279;46.388;8.116;2023-12-07T04:59:10;-1.20;99.90
20242;DHT22;10279;46.388;8.116;2023-12-07T05:01:37;-1.20;99.90
20242;DHT22;10279;46.388;8.116;2023-12-07T05:04:05;-1.20;99.90
20242;DHT22;10279;46.388;8.116;2023-12-07T05:06:33;-1.20;99.90
20242;DHT22;10279;46.388;8.116;2023-12-07T05:09:01;-1.20;99.90
20242;DHT22;10279;46.388;8.116;2023-12-07T05:11:28;-1.20;99.90
20242;DHT22;10279;46.388;8.116;2023-12-07T05:13:55;-1.20;99.90
20242;DHT22;10279;46.388;8.116;2023-12-07T05:16:22;-1.30;99.90
20242;DHT22;10279;46.388;8.116;2023-12-07T05:18:49;-1.20;99.90
20242;DHT22;10279;46.388;8.116;2023-12-07T05:21:16;-1.20;99.90
20242;DHT22;10279;46.388;8.116;2023-12-07T05:23:43;-1.30;99.90
20242;DHT22;10279;46.388;8.116;2023-12-07T05:26:11;-1.30;99.90
20242;DHT22;10279;46.388;8.116;2023-12-07T05:28:38;-1.30;99.90
20242;DHT22;10279;46.388;8.116;2023-12-07T05:31:05;-1.30;99.90
20242;DHT22;10279;46.388;8.116;2023-12-07T05:33:34;-1.30;99.90
20242;DHT22;10279;46.388;8.116;2023-12-07T05:36:01;-1.20;99.90
20242;DHT22;10279;46.388;8.116;2023-12-07T05:38:30;-1.30;99.90
20242;DHT22;10279;46.388;8.116;2023-12-07T05:40:57;-1.40;99.90
20242;DHT22;10279;46.388;8.116;2023-12-07T05:43:24;-1.40;99.90
20242;DHT22;10279;46.388;8.116;2023-12-07T05:45:52;-1.50;99.90
20242;DHT22;10279;46.388;8.116;2023-12-07T05:48:20;-1.50;99.90
20242;DHT22;10279;46.388;8.116;2023-12-07T05:50:47;-1.50;99.90
20242;DHT22;10279;46.388;8.116;2023-12-07T05:53:14;-1.50;99.90
20242;DHT22;10279;46.388;8.116;2023-12-07T05:55:41;-1.50;99.90
20242;DHT22;10279;46.388;8.116;2023-12-07T05:58:08;-1.40;99.90
20242;DHT22;10279;46.388;8.116;2023-12-07T06:00:35;-1.30;99.90
20242;DHT22;10279;46.388;8.116;2023-12-07T06:03:04;-1.30;99.90
20242;DHT22;10279;46.388;8.116;2023-12-07T06:05:32;-1.40;99.90
20242;DHT22;10279;46.388;8.116;2023-12-07T06:07:59;-1.40;99.90
20242;DHT22;10279;46.388;8.116;2023-12-07T06:10:26;-1.50;99.90
20242;DHT22;10279;46.388;8.116;2023-12-07T06:12:53;-1.50;99.90
20242;DHT22;10279;46.388;8.116;2023-12-07T06:15:22;-1.50;99.90
20242;DHT22;10279;46.388;8.116;2023-12-07T06:17:49;-1.50;99.90
20242;DHT22;10279;46.388;8.116;2023-12-07T06:20:16;-1.50;99.90
20242;DHT22;10279;46.388;8.116;2023-12-07T06:22:44;-1.50;99.90
20242;DHT22;10279;46.388;8.116;2023-12-07T06:25:11;-1.50;99.90
20242;DHT22;10279;46.388;8.116;2023-12-07T06:27:38;-1.60;99.90
20242;DHT22;10279;46.388;8.116;2023-12-07T06:30:06;-1.50;99.90
20242;DHT22;10279;46.388;8.116;2023-12-07T06:32:33;-1.50;99.90
20242;DHT22;10279;46.388;8.116;2023-12-07T06:35:01;-1.50;99.90
20242;DHT22;10279;46.388;8.116;2023-12-07T06:37:28;-1.50;99.90
20242;DHT22;10279;46.388;8.116;2023-12-07T06:39:55;-1.60;99.90
20242;DHT22;10279;46.388;8.116;2023-12-07T06:42:22;-1.70;99.90
20242;DHT22;10279;46.388;8.116;2023-12-07T06:44:50;-1.80;99.90
20242;DHT22;10279;46.388;8.116;2023-12-07T06:47:17;-1.70;99.90
20242;DHT22;10279;46.388;8.116;2023-12-07T06:49:45;-1.70;99.90
20242;DHT22;10279;46.388;8.116;2023-12-07T06:52:19;-1.80;99.90
20242;DHT22;10279;46.388;8.116;2023-12-07T06:54:46;-1.80;99.90
20242;DHT22;10279;46.388;8.116;2023-12-07T06:57:14;-1.80;99.90
20242;DHT22;10279;46.388;8.116;2023-12-07T06:59:41;-1.70;99.90
20242;DHT22;10279;46.388;8.116;2023-12-07T07:02:08;-1.60;99.90
20242;DHT22;10279;46.388;8.116;2023-12-07T07:04:35;-1.60;99.90
20242;DHT22;10279;46.388;8.116;2023-12-07T07:07:03;-1.60;99.90
20242;DHT22;10279;46.388;8.116;2023-12-07T07:09:31;-1.70;99.90
20242;DHT22;10279;46.388;8.116;2023-12-07T07:11:58;-1.60;99.90
20242;DHT22;10279;46.388;8.116;2023-12-07T07:14:25;-1.60;99.90
20242;DHT22;10279;46.388;8.116;2023-12-07T07:16:52;-1.60;99.90
20242;DHT22;10279;46.388;8.116;2023-12-07T07:19:19;-1.70;99.90
20242;DHT22;10279;46.388;8.116;2023-12-07T07:21:47;-1.70;99.90
20242;DHT22;10279;46.388;8.116;2023-12-07T07:24:15;-1.70;99.90
20242;DHT22;10279;46.388;8.116;2023-12-07T07:26:42;-1.80;99.90
20242;DHT22;10279;46.388;8.116;2023-12-07T07:29:10;-1.90;99.90
20242;DHT22;10279;46.388;8.116;2023-12-07T07:31:37;-1.80;99.90
20242;DHT22;10279;46.388;8.116;2023-12-07T07:34:05;-1.80;99.90
20242;DHT22;10279;46.388;8.116;2023-12-07T07:36:32;-1.70;99.90
20242;DHT22;10279;46.388;8.116;2023-12-07T07:39:00;-1.70;99.90
20242;DHT22;10279;46.388;8.116;2023-12-07T07:41:27;-1.70;99.90
20242;DHT22;10279;46.388;8.116;2023-12-07T07:43:54;-1.80;99.90
20242;DHT22;10279;46.388;8.116;2023-12-07T07:46:21;-1.80;99.90
20242;DHT22;10279;46.388;8.116;2023-12-07T07:48:49;-1.80;99.90
20242;DHT22;10279;46.388;8.116;2023-12-07T07:51:16;-1.90;99.90
20242;DHT22;10279;46.388;8.116;2023-12-07T07:53:44;-1.80;99.90
20242;DHT22;10279;46.388;8.116;2023-12-07T07:56:11;-1.80;99.90
20242;DHT22;10279;46.388;8.116;2023-12-07T07:58:38;-1.80;99.90
20242;DHT22;10279;46.388;8.116;2023-12-07T08:01:05;-1.70;99.90
20242;DHT22;10279;46.388;8.116;2023-12-07T08:03:32;-1.70;99.90
20242;DHT22;10279;46.388;8.116;2023-12-07T08:06:00;-1.70;99.90
20242;DHT22;10279;46.388;8.116;2023-12-07T08:08:27;-1.70;99.90
20242;DHT22;10279;46.388;8.116;2023-12-07T08:10:54;-1.70;99.90
20242;DHT22;10279;46.388;8.116;2023-12-07T08:13:23;-1.60;99.90
20242;DHT22;10279;46.388;8.116;2023-12-07T08:15:50;-1.70;99.90
20242;DHT22;10279;46.388;8.116;2023-12-07T08:18:21;-1.80;99.90
20242;DHT22;10279;46.388;8.116;2023-12-07T08:20:49;-1.80;99.90
20242;DHT22;10279;46.388;8.116;2023-12-07T08:23:17;-1.80;99.90
20242;DHT22;10279;46.388;8.116;2023-12-07T08:25:44;-1.80;99.90
20242;DHT22;10279;46.388;8.116;2023-12-07T08:28:11;-1.80;99.90
20242;DHT22;10279;46.388;8.116;2023-12-07T08:30:38;-1.80;99.90
20242;DHT22;10279;46.388;8.116;2023-12-07T08:33:05;-1.80;99.90
20242;DHT22;10279;46.388;8.116;2023-12-07T08:35:32;-1.70;99.90
20242;DHT22;10279;46.388;8.116;2023-12-07T08:37:59;-1.60;99.90
20242;DHT22;10279;46.388;8.116;2023-12-07T08:40:27;-1.60;99.90
20242;DHT22;10279;46.388;8.116;2023-12-07T08:42:54;-1.60;99.90
20242;DHT22;10279;46.388;8.116;2023-12-07T08:45:21;-1.60;99.90
20242;DHT22;10279;46.388;8.116;2023-12-07T08:47:49;-1.50;99.90
20242;DHT22;10279;46.388;8.116;2023-12-07T08:50:16;-1.50;99.90
20242;DHT22;10279;46.388;8.116;2023-12-07T08:52:43;-1.50;99.90
20242;DHT22;10279;46.388;8.116;2023-12-07T08:55:22;-1.60;99.90
20242;DHT22;10279;46.388;8.116;2023-12-07T08:57:49;-1.60;99.90
20242;DHT22;10279;46.388;8.116;2023-12-07T09:00:17;-1.60;99.90
20242;DHT22;10279;46.388;8.116;2023-12-07T09:02:44;-1.50;99.90
20242;DHT22;10279;46.388;8.116;2023-12-07T09:05:15;-1.50;99.90
20242;DHT22;10279;46.388;8.116;2023-12-07T09:07:43;-1.60;99.90
20242;DHT22;10279;46.388;8.116;2023-12-07T09:10:11;-1.60;99.90
20242;DHT22;10279;46.388;8.116;2023-12-07T09:12:38;-1.60;99.90
20242;DHT22;10279;46.388;8.116;2023-12-07T09:15:07;-1.70;99.90
20242;DHT22;10279;46.388;8.116;2023-12-07T09:17:35;-1.70;99.90
20242;DHT22;10279;46.388;8.116;2023-12-07T09:20:06;-1.60;99.90
20242;DHT22;10279;46.388;8.116;2023-12-07T09:22:34;-1.50;99.90
20242;DHT22;10279;46.388;8.116;2023-12-07T09:25:04;-1.50;99.90
20242;DHT22;10279;46.388;8.116;2023-12-07T09:27:32;-1.50;99.90
20242;DHT22;10279;46.388;8.116;2023-12-07T09:30:01;-1.50;99.90
20242;DHT22;10279;46.388;8.116;2023-12-07T09:32:28;-1.40;99.90
20242;DHT22;10279;46.388;8.116;2023-12-07T09:35:04;-1.30;99.90
20242;DHT22;10279;46.388;8.116;2023-12-07T09:37:31;-1.30;99.90
20242;DHT22;10279;46.388;8.116;2023-12-07T09:39:59;-1.30;99.90
20242;DHT22;10279;46.388;8.116;2023-12-07T09:42:26;-1.30;99.90
20242;DHT22;10279;46.388;8.116;2023-12-07T09:45:02;-1.30;99.90
20242;DHT22;10279;46.388;8.116;2023-12-07T09:47:31;-1.40;99.90
20242;DHT22;10279;46.388;8.116;2023-12-07T09:50:06;-1.50;99.90
20242;DHT22;10279;46.388;8.116;2023-12-07T09:52:34;-1.50;99.90
20242;DHT22;10279;46.388;8.116;2023-12-07T09:55:03;-1.40;99.90
20242;DHT22;10279;46.388;8.116;2023-12-07T09:57:32;-1.30;99.90
20242;DHT22;10279;46.388;8.116;2023-12-07T10:00:01;-1.40;99.90
20242;DHT22;10279;46.388;8.116;2023-12-07T10:02:28;-1.50;99.90
20242;DHT22;10279;46.388;8.116;2023-12-07T10:05:09;-1.40;99.90
20242;DHT22;10279;46.388;8.116;2023-12-07T10:07:49;-1.40;99.90
20242;DHT22;10279;46.388;8.116;2023-12-07T10:10:17;-1.30;99.90
20242;DHT22;10279;46.388;8.116;2023-12-07T10:12:52;-1.20;99.90
20242;DHT22;10279;46.388;8.116;2023-12-07T10:15:21;-1.20;99.90
20242;DHT22;10279;46.388;8.116;2023-12-07T10:17:53;-1.10;99.90
20242;DHT22;10279;46.388;8.116;2023-12-07T10:20:23;-1.00;99.90
20242;DHT22;10279;46.388;8.116;2023-12-07T10:23:08;-0.90;99.90
20242;DHT22;10279;46.388;8.116;2023-12-07T10:25:38;-1.00;99.90
20242;DHT22;10279;46.388;8.116;2023-12-07T10:28:06;-0.90;99.90
20242;DHT22;10279;46.388;8.116;2023-12-07T10:30:36;-0.80;99.90
20242;DHT22;10279;46.388;8.116;2023-12-07T10:33:07;-0.70;99.90
20242;DHT22;10279;46.388;8.116;2023-12-07T10:35:41;-0.50;99.90
20242;DHT22;10279;46.388;8.116;2023-12-07T10:38:09;0.00;99.90
20242;DHT22;10279;46.388;8.116;2023-12-07T10:40:37;0.70;99.90
20242;DHT22;10279;46.388;8.116;2023-12-07T10:43:06;1.30;99.90
20242;DHT22;10279;46.388;8.116;2023-12-07T10:45:35;2.00;99.90
20242;DHT22;10279;46.388;8.116;2023-12-07T10:48:08;2.70;99.90
20242;DHT22;10279;46.388;8.116;2023-12-07T10:50:46;3.30;99.90
20242;DHT22;10279;46.388;8.116;2023-12-07T10:53:26;3.70;99.90
20242;DHT22;10279;46.388;8.116;2023-12-07T10:56:00;4.10;99.90
20242;DHT22;10279;46.388;8.116;2023-12-07T10:58:28;4.50;99.90
20242;DHT22;10279;46.388;8.116;2023-12-07T11:00:57;4.80;99.90
20242;DHT22;10279;46.388;8.116;2023-12-07T11:03:25;5.20;99.90
20242;DHT22;10279;46.388;8.116;2023-12-07T11:05:53;5.40;99.90
20242;DHT22;10279;46.388;8.116;2023-12-07T11:13:59;5.70;99.90
20242;DHT22;10279;46.388;8.116;2023-12-07T11:16:35;5.80;99.90
20242;DHT22;10279;46.388;8.116;2023-12-07T11:19:04;5.90;99.90
20242;DHT22;10279;46.388;8.116;2023-12-07T11:21:38;6.00;99.90
20242;DHT22;10279;46.388;8.116;2023-12-07T11:24:06;6.00;99.90
20242;DHT22;10279;46.388;8.116;2023-12-07T11:26:33;6.10;99.90
20242;DHT22;10279;46.388;8.116;2023-12-07T11:29:01;6.20;99.90
20242;DHT22;10279;46.388;8.116;2023-12-07T11:31:29;6.40;99.90
20242;DHT22;10279;46.388;8.116;2023-12-07T11:34:06;6.50;99.90
20242;DHT22;10279;46.388;8.116;2023-12-07T11:36:34;6.50;99.90
20242;DHT22;10279;46.388;8.116;2023-12-07T11:41:44;6.50;99.90
20242;DHT22;10279;46.388;8.116;2023-12-07T11:44:12;6.90;99.90
20242;DHT22;10279;46.388;8.116;2023-12-07T11:46:39;7.00;99.90
20242;DHT22;10279;46.388;8.116;2023-12-07T11:49:07;7.10;99.90
20242;DHT22;10279;46.388;8.116;2023-12-07T11:51:54;7.10;99.90
20242;DHT22;10279;46.388;8.116;2023-12-07T11:54:26;7.20;99.90
20242;DHT22;10279;46.388;8.116;2023-12-07T11:56:54;7.40;99.90
20242;DHT22;10279;46.388;8.116;2023-12-07T11:59:22;7.50;99.90
20242;DHT22;10279;46.388;8.116;2023-12-07T12:02:00;7.70;99.90
20242;DHT22;10279;46.388;8.116;2023-12-07T12:04:30;7.70;99.90
20242;DHT22;10279;46.388;8.116;2023-12-07T12:06:58;7.90;99.90
20242;DHT22;10279;46.388;8.116;2023-12-07T12:09:25;8.10;99.90
20242;DHT22;10279;46.388;8.116;2023-12-07T12:11:59;8.20;99.90
20242;DHT22;10279;46.388;8.116;2023-12-07T12:14:30;8.20;99.90
20242;DHT22;10279;46.388;8.116;2023-12-07T12:16:57;8.20;99.90
20242;DHT22;10279;46.388;8.116;2023-12-07T12:19:25;8.10;99.90
20242;DHT22;10279;46.388;8.116;2023-12-07T12:22:03;7.90;99.90
20242;DHT22;10279;46.388;8.116;2023-12-07T12:24:35;7.80;99.90
20242;DHT22;10279;46.388;8.116;2023-12-07T12:27:03;8.10;99.90
20242;DHT22;10279;46.388;8.116;2023-12-07T12:29:32;8.30;99.90
20242;DHT22;10279;46.388;8.116;2023-12-07T12:32:02;8.60;99.90
20242;DHT22;10279;46.388;8.116;2023-12-07T12:34:33;8.80;99.90
20242;DHT22;10279;46.388;8.116;2023-12-07T12:37:01;8.90;99.90
20242;DHT22;10279;46.388;8.116;2023-12-07T12:39:29;9.00;99.90
20242;DHT22;10279;46.388;8.116;2023-12-07T12:42:01;8.90;99.90
20242;DHT22;10279;46.388;8.116;2023-12-07T12:44:30;8.90;99.90
20242;DHT22;10279;46.388;8.116;2023-12-07T12:47:08;9.00;99.90
20242;DHT22;10279;46.388;8.116;2023-12-07T12:49:37;9.10;99.90
20242;DHT22;10279;46.388;8.116;2023-12-07T12:52:10;9.10;99.90
20242;DHT22;10279;46.388;8.116;2023-12-07T12:54:42;9.20;99.90
20242;DHT22;10279;46.388;8.116;2023-12-07T12:57:09;9.40;99.90
20242;DHT22;10279;46.388;8.116;2023-12-07T12:59:37;9.60;99.90
20242;DHT22;10279;46.388;8.116;2023-12-07T13:02:04;9.80;99.90
20242;DHT22;10279;46.388;8.116;2023-12-07T13:04:32;9.90;99.90
20242;DHT22;10279;46.388;8.116;2023-12-07T13:07:04;10.10;99.90
20242;DHT22;10279;46.388;8.116;2023-12-07T13:09:34;10.40;99.90
20242;DHT22;10279;46.388;8.116;2023-12-07T13:12:02;10.50;99.90
20242;DHT22;10279;46.388;8.116;2023-12-07T13:14:32;10.40;99.90
20242;DHT22;10279;46.388;8.116;2023-12-07T13:17:06;10.30;99.90
20242;DHT22;10279;46.388;8.116;2023-12-07T13:19:36;10.30;99.90
20242;DHT22;10279;46.388;8.116;2023-12-07T13:22:04;10.30;99.90
20242;DHT22;10279;46.388;8.116;2023-12-07T13:24:31;10.40;99.90
20242;DHT22;10279;46.388;8.116;2023-12-07T13:26:59;10.40;99.90
20242;DHT22;10279;46.388;8.116;2023-12-07T13:29:28;10.50;99.90
20242;DHT22;10279;46.388;8.116;2023-12-07T13:32:03;10.40;99.90
20242;DHT22;10279;46.388;8.116;2023-12-07T13:34:31;10.20;99.90
20242;DHT22;10279;46.388;8.116;2023-12-07T13:36:59;9.90;99.90
20242;DHT22;10279;46.388;8.116;2023-12-07T13:39:26;9.70;99.90
20242;DHT22;10279;46.388;8.116;2023-12-07T13:41:58;9.30;99.90
20242;DHT22;10279;46.388;8.116;2023-12-07T13:44:30;9.00;99.90
20242;DHT22;10279;46.388;8.116;2023-12-07T13:47:00;8.70;99.90
20242;DHT22;10279;46.388;8.116;2023-12-07T13:49:27;8.40;99.90
20242;DHT22;10279;46.388;8.116;2023-12-07T13:52:01;8.10;99.90
20242;DHT22;10279;46.388;8.116;2023-12-07T13:54:35;7.80;99.90
20242;DHT22;10279;46.388;8.116;2023-12-07T13:57:05;7.60;99.90
20242;DHT22;10279;46.388;8.116;2023-12-07T13:59:35;7.30;99.90
20242;DHT22;10279;46.388;8.116;2023-12-07T14:02:05;7.00;99.90
20242;DHT22;10279;46.388;8.116;2023-12-07T14:04:33;6.70;99.90
20242;DHT22;10279;46.388;8.116;2023-12-07T14:07:14;6.40;99.90
20242;DHT22;10279;46.388;8.116;2023-12-07T14:09:44;6.20;99.90
20242;DHT22;10279;46.388;8.116;2023-12-07T14:12:24;6.20;99.90
20242;DHT22;10279;46.388;8.116;2023-12-07T14:14:51;6.40;99.90
20242;DHT22;10279;46.388;8.116;2023-12-07T14:17:18;6.60;99.90
20242;DHT22;10279;46.388;8.116;2023-12-07T14:19:47;6.80;99.90
20242;DHT22;10279;46.388;8.116;2023-12-07T14:22:17;7.00;99.90
20242;DHT22;10279;46.388;8.116;2023-12-07T14:24:44;7.00;99.90
20242;DHT22;10279;46.388;8.116;2023-12-07T14:27:12;7.00;99.90
20242;DHT22;10279;46.388;8.116;2023-12-07T14:29:39;6.80;99.90
20242;DHT22;10279;46.388;8.116;2023-12-07T14:32:06;6.80;99.90
20242;DHT22;10279;46.388;8.116;2023-12-07T14:34:33;6.60;99.90
20242;DHT22;10279;46.388;8.116;2023-12-07T14:37:03;6.50;99.90
20242;DHT22;10279;46.388;8.116;2023-12-07T14:39:34;6.50;99.90
20242;DHT22;10279;46.388;8.116;2023-12-07T14:42:02;6.50;99.90
20242;DHT22;10279;46.388;8.116;2023-12-07T14:44:31;6.30;99.90
20242;DHT22;10279;46.388;8.116;2023-12-07T14:46:59;6.30;99.90
20242;DHT22;10279;46.388;8.116;2023-12-07T14:49:26;6.70;99.90
20242;DHT22;10279;46.388;8.116;2023-12-07T14:51:55;7.50;99.90
20242;DHT22;10279;46.388;8.116;2023-12-07T14:54:27;7.70;99.90
20242;DHT22;10279;46.388;8.116;2023-12-07T14:56:56;7.70;99.90
20242;DHT22;10279;46.388;8.116;2023-12-07T14:59:24;7.90;99.90
20242;DHT22;10279;46.388;8.116;2023-12-07T15:01:52;7.90;99.90
20242;DHT22;10279;46.388;8.116;2023-12-07T15:04:20;7.80;99.90
20242;DHT22;10279;46.388;8.116;2023-12-07T15:07:00;7.60;99.90
20242;DHT22;10279;46.388;8.116;2023-12-07T15:09:28;7.10;99.90
20242;DHT22;10279;46.388;8.116;2023-12-07T15:11:56;6.70;99.90
20242;DHT22;10279;46.388;8.116;2023-12-07T15:14:25;6.40;99.90
20242;DHT22;10279;46.388;8.116;2023-12-07T15:17:05;6.00;99.90
20242;DHT22;10279;46.388;8.116;2023-12-07T15:19:35;5.60;99.90
20242;DHT22;10279;46.388;8.116;2023-12-07T15:22:06;5.30;99.90
20242;DHT22;10279;46.388;8.116;2023-12-07T15:24:35;5.20;99.90
20242;DHT22;10279;46.388;8.116;2023-12-07T15:27:04;4.90;99.90
20242;DHT22;10279;46.388;8.116;2023-12-07T15:29:32;4.80;99.90
20242;DHT22;10279;46.388;8.116;2023-12-07T15:32:05;4.60;99.90
20242;DHT22;10279;46.388;8.116;2023-12-07T15:34:33;4.40;99.90
20242;DHT22;10279;46.388;8.116;2023-12-07T15:37:10;4.30;99.90
20242;DHT22;10279;46.388;8.116;2023-12-07T15:39:40;4.10;99.90
20242;DHT22;10279;46.388;8.116;2023-12-07T15:42:08;4.00;99.90
20242;DHT22;10279;46.388;8.116;2023-12-07T15:44:36;3.90;99.90
20242;DHT22;10279;46.388;8.116;2023-12-07T15:47:04;3.70;99.90
20242;DHT22;10279;46.388;8.116;2023-12-07T15:49:32;3.60;99.90
20242;DHT22;10279;46.388;8.116;2023-12-07T15:51:59;3.50;99.90
20242;DHT22;10279;46.388;8.116;2023-12-07T15:54:27;3.40;99.90
20242;DHT22;10279;46.388;8.116;2023-12-07T15:57:06;3.30;99.90
20242;DHT22;10279;46.388;8.116;2023-12-07T15:59:35;3.20;99.90